Time;durP1;ratioP1;P1;durP2;ratioP2;P2;SDS_P1;SDS_P2;PMS_P1;PMS_P2;Temp;Humidity;BMP_temperature;BMP_pressure;BME280_temperature;BME280_humidity;BME280_pressure;Samples;Min_cycle;Max_cycle;Signal;HPM_P1;HPM_P2
2023/01/01 00:00:03;;;;;;;14.87;9.90;;;;;;;;;;4950209;28;20888;-74
2023/01/01 00:02:52;;;;;;;14.17;9.90;;;;;;;;;;4947966;28;20494;-74
2023/01/01 00:05:41;;;;;;;10.93;8.80;;;;;;;;;;4947373;28;20478;-74
2023/01/01 00:08:32;;;;;;;11.83;7.80;;;;;;;;;;4947351;28;20503;-75
2023/01/01 00:11:22;;;;;;;8.30;6.90;;;;;;;;;;4948583;28;20471;-74
2023/01/01 00:14:11;;;;;;;7.83;6.40;;;;;;;;;;4950866;28;20448;-74
2023/01/01 00:17:03;;;;;;;7.83;6.60;;;;;;;;;;4935665;28;20463;-76
2023/01/01 00:19:52;;;;;;;11.17;6.70;;;;;;;;;;4945483;28;20463;-76
2023/01/01 00:22:44;;;;;;;8.50;5.50;;;;;;;;;;4942461;28;20491;-75
2023/01/01 00:25:43;;;;;;;9.43;6.13;;;;;;;;;;4933767;28;20522;-75
2023/01/01 00:28:33;;;;;;;9.27;6.20;;;;;;;;;;4937226;28;20943;-74
2023/01/01 00:31:27;;;;;;;8.87;6.40;;;;;;;;;;4939173;28;20484;-75
2023/01/01 00:34:16;;;;;;;8.60;6.47;;;;;;;;;;4937784;28;20495;-75
2023/01/01 00:37:06;;;;;;;9.30;6.80;;;;;;;;;;4946705;28;20448;-75
2023/01/01 00:39:55;;;;;;;9.80;7.20;;;;;;;;;;4945534;28;20784;-74
2023/01/01 00:42:46;;;;;;;9.87;7.37;;;;;;;;;;4940409;28;20606;-74
2023/01/01 00:45:52;;;;;;;9.60;7.93;;;;;;;;;;4942580;28;20466;-74
2023/01/01 00:48:41;;;;;;;9.50;7.80;;;;;;;;;;4943722;28;20892;-76
2023/01/01 00:51:30;;;;;;;11.97;7.73;;;;;;;;;;4948080;28;23892;-75
2023/01/01 00:54:26;;;;;;;11.80;7.57;;;;;;;;;;4944843;28;21620;-76
2023/01/01 00:57:15;;;;;;;9.17;6.57;;;;;;;;;;4949950;28;20452;-73
2023/01/01 01:00:05;;;;;;;10.40;6.70;;;;;;;;;;4947816;28;20479;-75
2023/01/01 01:02:57;;;;;;;9.47;6.23;;;;;;;;;;4937592;28;20463;-75
2023/01/01 01:05:46;;;;;;;9.57;6.13;;;;;;;;;;4943893;28;20637;-76
2023/01/01 01:08:39;;;;;;;10.93;6.13;;;;;;;;;;4939022;28;20995;-76
2023/01/01 01:11:29;;;;;;;10.63;5.63;;;;;;;;;;4945936;28;20678;-75
2023/01/01 01:14:23;;;;;;;7.13;5.47;;;;;;;;;;4944502;28;20462;-74
2023/01/01 01:17:11;;;;;;;7.77;5.90;;;;;;;;;;4940869;28;20456;-75
2023/01/01 01:20:05;;;;;;;6.57;5.50;;;;;;;;;;4941759;28;20845;-74
2023/01/01 01:23:00;;;;;;;9.37;5.50;;;;;;;;;;4945499;28;21128;-75
2023/01/01 01:25:54;;;;;;;9.50;6.10;;;;;;;;;;4937443;28;20479;-76
2023/01/01 01:28:46;;;;;;;6.50;5.13;;;;;;;;;;4941005;28;20501;-75
2023/01/01 01:31:37;;;;;;;11.40;5.80;;;;;;;;;;4930185;28;20483;-73
2023/01/01 01:34:32;;;;;;;14.23;6.97;;;;;;;;;;4933532;28;20455;-74
2023/01/01 01:37:22;;;;;;;9.93;7.03;;;;;;;;;;4942570;28;20460;-71
2023/01/01 01:40:16;;;;;;;9.43;7.33;;;;;;;;;;4934871;28;20471;-72
2023/01/01 01:43:07;;;;;;;8.73;6.30;;;;;;;;;;4946174;28;20470;-71
2023/01/01 01:46:00;;;;;;;7.80;5.50;;;;;;;;;;4944509;28;20463;-72
2023/01/01 01:48:55;;;;;;;13.63;6.53;;;;;;;;;;4941925;28;20884;-73
2023/01/01 01:51:45;;;;;;;9.30;4.93;;;;;;;;;;4937551;28;20475;-74
2023/01/01 01:54:39;;;;;;;9.37;5.23;;;;;;;;;;4950039;28;20542;-74
2023/01/01 01:57:29;;;;;;;8.40;5.33;;;;;;;;;;4951448;28;20455;-75
2023/01/01 02:00:18;;;;;;;7.97;5.23;;;;;;;;;;4952690;28;20465;-74
2023/01/01 02:03:08;;;;;;;8.77;5.57;;;;;;;;;;4955716;28;20848;-74
2023/01/01 02:05:57;;;;;;;7.93;5.83;;;;;;;;;;4950410;28;20467;-73
2023/01/01 02:08:45;;;;;;;8.03;5.27;;;;;;;;;;4951725;28;20875;-72
2023/01/01 02:11:40;;;;;;;10.10;5.60;;;;;;;;;;4950286;28;21034;-73
2023/01/01 02:14:29;;;;;;;10.13;5.97;;;;;;;;;;4952331;28;20828;-73
2023/01/01 02:17:23;;;;;;;9.20;5.00;;;;;;;;;;4951029;28;20874;-72
2023/01/01 02:20:18;;;;;;;7.10;5.37;;;;;;;;;;4952922;28;20467;-73
2023/01/01 02:23:25;;;;;;;7.97;4.57;;;;;;;;;;4952436;28;20443;-73
2023/01/01 02:26:41;;;;;;;8.57;5.33;;;;;;;;;;4951400;28;20491;-73
2023/01/01 02:29:36;;;;;;;8.60;5.53;;;;;;;;;;4953050;28;20871;-72
2023/01/01 02:32:30;;;;;;;7.13;4.90;;;;;;;;;;4949459;28;20996;-72
2023/01/01 02:35:35;;;;;;;7.70;4.97;;;;;;;;;;4949765;28;20451;-72
2023/01/01 02:38:31;;;;;;;10.30;5.20;;;;;;;;;;4952102;28;21705;-73
2023/01/01 02:41:22;;;;;;;6.80;4.80;;;;;;;;;;4950859;28;20600;-73
2023/01/01 02:44:19;;;;;;;8.20;5.43;;;;;;;;;;4948322;28;20456;-73
2023/01/01 02:47:11;;;;;;;7.80;5.03;;;;;;;;;;4947341;28;20466;-73
2023/01/01 02:50:07;;;;;;;8.97;6.03;;;;;;;;;;4946366;28;20496;-72
2023/01/01 02:53:02;;;;;;;6.53;5.23;;;;;;;;;;4946198;28;20479;-72
2023/01/01 02:56:01;;;;;;;7.47;5.03;;;;;;;;;;4950057;28;20467;-73
2023/01/01 03:02:08;;;;;;;7.50;5.67;;;;;;;;;;4949483;28;21067;-72
2023/01/01 03:05:04;;;;;;;7.60;5.70;;;;;;;;;;4950531;28;20494;-73
2023/01/01 03:08:00;;;;;;;7.90;6.20;;;;;;;;;;4950016;28;20459;-72
2023/01/01 03:10:54;;;;;;;6.37;5.50;;;;;;;;;;4943360;28;21051;-72
2023/01/01 03:13:49;;;;;;;14.63;7.70;;;;;;;;;;4952010;28;21002;-72
2023/01/01 03:16:40;;;;;;;9.97;6.40;;;;;;;;;;4951789;28;20463;-72
2023/01/01 03:19:32;;;;;;;9.43;6.30;;;;;;;;;;4951392;28;20510;-73
2023/01/01 03:22:29;;;;;;;6.97;6.27;;;;;;;;;;4951433;28;20495;-73
2023/01/01 03:25:20;;;;;;;8.30;6.57;;;;;;;;;;4952968;28;20985;-72
2023/01/01 03:28:11;;;;;;;8.70;7.33;;;;;;;;;;4951633;28;20951;-73
2023/01/01 03:31:03;;;;;;;9.50;7.43;;;;;;;;;;4946281;28;20506;-72
2023/01/01 03:33:54;;;;;;;9.80;7.30;;;;;;;;;;4950085;28;20482;-72
2023/01/01 03:36:45;;;;;;;9.30;7.10;;;;;;;;;;4945762;28;20456;-72
2023/01/01 03:39:44;;;;;;;11.53;7.80;;;;;;;;;;4947048;28;20472;-72
2023/01/01 03:42:41;;;;;;;9.10;7.40;;;;;;;;;;4947418;28;20650;-72
2023/01/01 03:45:31;;;;;;;10.90;8.17;;;;;;;;;;4947785;28;20460;-73
2023/01/01 03:48:19;;;;;;;12.77;9.27;;;;;;;;;;4951224;28;20486;-73
2023/01/01 03:51:10;;;;;;;9.13;8.20;;;;;;;;;;4948535;28;21007;-73
2023/01/01 03:54:01;;;;;;;10.70;7.23;;;;;;;;;;4946838;28;20456;-73
2023/01/01 03:56:58;;;;;;;10.60;7.60;;;;;;;;;;4948464;28;21102;-73
2023/01/01 03:59:50;;;;;;;12.70;8.00;;;;;;;;;;4949129;28;20486;-72
2023/01/01 04:02:43;;;;;;;9.20;7.30;;;;;;;;;;4945221;28;20509;-72
2023/01/01 04:05:32;;;;;;;10.67;7.40;;;;;;;;;;4950293;28;20463;-73
2023/01/01 04:08:25;;;;;;;9.83;6.80;;;;;;;;;;4949970;28;20502;-73
2023/01/01 04:14:29;;;;;;;9.73;7.47;;;;;;;;;;4950644;28;20451;-73
2023/01/01 04:17:17;;;;;;;9.40;7.33;;;;;;;;;;4949493;28;20844;-73
2023/01/01 04:20:08;;;;;;;10.40;6.87;;;;;;;;;;4950704;28;20860;-72
2023/01/01 04:22:57;;;;;;;8.23;6.90;;;;;;;;;;4951231;28;20448;-72
2023/01/01 04:25:46;;;;;;;8.33;6.27;;;;;;;;;;4950492;28;20471;-72
2023/01/01 04:28:36;;;;;;;9.40;7.33;;;;;;;;;;4951426;28;20474;-73
2023/01/01 04:31:34;;;;;;;10.53;6.37;;;;;;;;;;4950708;28;20483;-72
2023/01/01 04:34:27;;;;;;;9.60;6.33;;;;;;;;;;4949057;29;20554;-72
2023/01/01 04:37:19;;;;;;;10.47;6.77;;;;;;;;;;4950445;28;20471;-73
2023/01/01 04:40:11;;;;;;;10.57;6.63;;;;;;;;;;4952173;28;20489;-72
2023/01/01 04:43:01;;;;;;;8.93;6.00;;;;;;;;;;4948376;28;20534;-72
2023/01/01 04:45:55;;;;;;;9.17;6.33;;;;;;;;;;4945458;28;20474;-74
2023/01/01 04:48:51;;;;;;;9.33;5.87;;;;;;;;;;4946072;28;20578;-73
2023/01/01 04:51:41;;;;;;;8.20;5.60;;;;;;;;;;4940980;28;20863;-72
2023/01/01 04:54:36;;;;;;;13.60;6.83;;;;;;;;;;4945441;28;20538;-72
2023/01/01 04:57:28;;;;;;;9.20;5.90;;;;;;;;;;4944879;28;20464;-72
2023/01/01 05:00:21;;;;;;;6.90;5.50;;;;;;;;;;4944288;28;21070;-72
2023/01/01 05:03:10;;;;;;;9.20;5.87;;;;;;;;;;4945674;28;21024;-72
2023/01/01 05:06:04;;;;;;;10.67;5.23;;;;;;;;;;4942660;28;20510;-72
2023/01/01 05:08:54;;;;;;;12.73;5.87;;;;;;;;;;4941358;28;20494;-72
2023/01/01 05:11:49;;;;;;;6.37;4.50;;;;;;;;;;4946466;28;21026;-73
2023/01/01 05:14:40;;;;;;;10.87;5.07;;;;;;;;;;4939500;28;20475;-72
2023/01/01 05:17:28;;;;;;;10.10;4.63;;;;;;;;;;4946284;28;20463;-73
2023/01/01 05:20:22;;;;;;;8.27;4.53;;;;;;;;;;4944219;28;20482;-73
2023/01/01 05:23:13;;;;;;;6.50;4.70;;;;;;;;;;4943559;28;20827;-72
2023/01/01 05:26:12;;;;;;;7.67;4.63;;;;;;;;;;4949622;28;20536;-73
2023/01/01 05:29:00;;;;;;;8.10;5.57;;;;;;;;;;4952139;28;20493;-73
2023/01/01 05:31:50;;;;;;;9.27;4.27;;;;;;;;;;4951320;28;21466;-73
2023/01/01 05:34:44;;;;;;;8.30;4.87;;;;;;;;;;4949399;28;20623;-75
2023/01/01 05:37:34;;;;;;;5.77;4.10;;;;;;;;;;4949935;28;20471;-72
2023/01/01 05:40:25;;;;;;;5.13;3.90;;;;;;;;;;4951699;28;20998;-72
2023/01/01 05:43:18;;;;;;;5.93;4.23;;;;;;;;;;4950276;28;20459;-72
2023/01/01 05:46:11;;;;;;;6.60;3.97;;;;;;;;;;4951553;28;20456;-72
2023/01/01 05:49:00;;;;;;;7.80;4.40;;;;;;;;;;4950765;28;20467;-72
2023/01/01 05:51:48;;;;;;;5.23;3.70;;;;;;;;;;4948404;28;20483;-72
2023/01/01 05:54:42;;;;;;;6.13;4.07;;;;;;;;;;4951505;28;20503;-72
2023/01/01 05:57:42;;;;;;;5.40;4.10;;;;;;;;;;4951993;28;20490;-73
2023/01/01 06:00:33;;;;;;;5.30;4.03;;;;;;;;;;4950981;28;20477;-73
2023/01/01 06:03:22;;;;;;;7.20;3.80;;;;;;;;;;4951695;28;20451;-72
2023/01/01 06:06:13;;;;;;;5.50;4.23;;;;;;;;;;4949605;28;20830;-73
2023/01/01 06:09:03;;;;;;;5.27;3.60;;;;;;;;;;4948586;28;20490;-72
2023/01/01 06:11:53;;;;;;;4.83;3.83;;;;;;;;;;4949121;28;20544;-72
2023/01/01 06:14:46;;;;;;;6.20;3.80;;;;;;;;;;4951161;28;20467;-72
2023/01/01 06:17:43;;;;;;;5.90;3.17;;;;;;;;;;4950740;28;20471;-73
2023/01/01 06:20:37;;;;;;;5.87;3.20;;;;;;;;;;4948711;28;20476;-72
2023/01/01 06:23:27;;;;;;;6.03;3.90;;;;;;;;;;4949371;28;20704;-72
2023/01/01 06:26:17;;;;;;;5.10;3.27;;;;;;;;;;4950303;28;20479;-73
2023/01/01 06:29:06;;;;;;;4.50;3.60;;;;;;;;;;4951012;28;20499;-73
2023/01/01 06:31:56;;;;;;;5.33;3.47;;;;;;;;;;4949607;28;20488;-73
2023/01/01 06:34:45;;;;;;;5.83;3.37;;;;;;;;;;4949366;28;20462;-73
2023/01/01 06:37:36;;;;;;;5.27;3.17;;;;;;;;;;4949168;28;20614;-73
2023/01/01 06:40:27;;;;;;;6.57;3.80;;;;;;;;;;4950384;28;20459;-72
2023/01/01 06:43:16;;;;;;;4.27;3.13;;;;;;;;;;4950442;28;20459;-72
2023/01/01 06:46:05;;;;;;;4.53;3.90;;;;;;;;;;4951706;28;20832;-75
2023/01/01 06:48:59;;;;;;;5.10;3.10;;;;;;;;;;4950810;28;20479;-75
2023/01/01 06:51:49;;;;;;;5.43;3.63;;;;;;;;;;4950606;28;20478;-75
2023/01/01 06:54:38;;;;;;;5.67;3.07;;;;;;;;;;4946422;28;20463;-75
2023/01/01 06:57:26;;;;;;;6.47;3.60;;;;;;;;;;4948224;28;20459;-73
2023/01/01 07:00:17;;;;;;;5.87;3.50;;;;;;;;;;4948178;28;20479;-72
2023/01/01 07:03:09;;;;;;;5.10;3.20;;;;;;;;;;4951001;28;20959;-73
2023/01/01 07:06:01;;;;;;;5.47;3.50;;;;;;;;;;4947226;28;20447;-72
2023/01/01 07:08:49;;;;;;;5.67;3.07;;;;;;;;;;4950641;28;20476;-73
2023/01/01 07:11:42;;;;;;;4.63;3.40;;;;;;;;;;4948197;28;20484;-72
2023/01/01 07:14:31;;;;;;;7.30;3.03;;;;;;;;;;4950794;28;20452;-72
2023/01/01 07:17:24;;;;;;;4.30;3.23;;;;;;;;;;4950720;28;20463;-72
2023/01/01 07:20:17;;;;;;;3.60;2.30;;;;;;;;;;4949804;28;20474;-73
2023/01/01 07:23:07;;;;;;;5.50;3.00;;;;;;;;;;4966285;28;20462;-73
2023/01/01 07:26:03;;;;;;;5.80;3.17;;;;;;;;;;4964157;28;20460;-72
2023/01/01 07:28:51;;;;;;;5.43;3.90;;;;;;;;;;4962296;28;20491;-72
2023/01/01 07:31:45;;;;;;;5.20;2.80;;;;;;;;;;4965130;28;20476;-72
2023/01/01 07:34:33;;;;;;;4.30;2.40;;;;;;;;;;4965051;28;20547;-73
2023/01/01 07:37:24;;;;;;;3.60;2.70;;;;;;;;;;4964309;28;20994;-72
2023/01/01 07:40:18;;;;;;;4.90;3.30;;;;;;;;;;4960419;28;20487;-72
2023/01/01 07:43:15;;;;;;;5.43;2.87;;;;;;;;;;4962827;28;20519;-72
2023/01/01 07:46:05;;;;;;;7.53;2.90;;;;;;;;;;4963200;28;20451;-73
2023/01/01 07:48:54;;;;;;;4.73;2.70;;;;;;;;;;4947278;28;20479;-73
2023/01/01 07:51:43;;;;;;;4.90;2.70;;;;;;;;;;4947832;28;20487;-72
2023/01/01 07:54:38;;;;;;;3.97;2.83;;;;;;;;;;4949731;28;20462;-72
2023/01/01 07:57:33;;;;;;;3.20;2.27;;;;;;;;;;4944557;28;20817;-73
2023/01/01 08:00:22;;;;;;;4.50;2.70;;;;;;;;;;4945414;28;20460;-73
2023/01/01 08:03:11;;;;;;;4.10;2.33;;;;;;;;;;4945317;28;20463;-73
2023/01/01 08:05:59;;;;;;;4.27;2.30;;;;;;;;;;4937673;28;20464;-73
2023/01/01 08:08:48;;;;;;;3.70;2.10;;;;;;;;;;4950756;28;21396;-73
2023/01/01 08:11:37;;;;;;;4.63;1.80;;;;;;;;;;4949982;28;20984;-72
2023/01/01 08:14:27;;;;;;;3.10;2.00;;;;;;;;;;4950647;28;20468;-73
2023/01/01 08:17:19;;;;;;;2.53;1.77;;;;;;;;;;4950436;28;20491;-73
2023/01/01 08:20:08;;;;;;;3.97;1.93;;;;;;;;;;4944369;28;20984;-73
2023/01/01 08:22:56;;;;;;;4.10;2.10;;;;;;;;;;4948362;28;20463;-72
2023/01/01 08:25:53;;;;;;;4.30;1.70;;;;;;;;;;4941354;28;20476;-72
2023/01/01 08:28:42;;;;;;;4.77;1.90;;;;;;;;;;4946576;28;20601;-72
2023/01/01 08:31:32;;;;;;;3.13;1.53;;;;;;;;;;4945315;28;20483;-72
2023/01/01 08:34:21;;;;;;;3.07;1.63;;;;;;;;;;4946355;28;20463;-73
2023/01/01 08:37:12;;;;;;;6.00;1.87;;;;;;;;;;4948590;28;20459;-72
2023/01/01 08:40:00;;;;;;;3.10;1.40;;;;;;;;;;4947536;28;20479;-72
2023/01/01 08:42:51;;;;;;;3.13;1.97;;;;;;;;;;4949324;28;21092;-72
2023/01/01 08:45:40;;;;;;;3.57;1.63;;;;;;;;;;4945714;28;20552;-73
2023/01/01 08:48:30;;;;;;;3.17;1.80;;;;;;;;;;4947374;28;20480;-72
2023/01/01 08:51:19;;;;;;;3.60;1.73;;;;;;;;;;4942658;28;20553;-72
2023/01/01 08:54:07;;;;;;;2.60;1.37;;;;;;;;;;4942645;28;20503;-72
2023/01/01 08:56:58;;;;;;;2.97;1.40;;;;;;;;;;4921752;28;20994;-72
2023/01/01 08:59:46;;;;;;;3.20;1.70;;;;;;;;;;4940384;28;20545;-72
2023/01/01 09:02:35;;;;;;;3.00;1.77;;;;;;;;;;4941918;28;21052;-72
2023/01/01 09:05:25;;;;;;;3.27;1.60;;;;;;;;;;4917058;28;21406;-72
2023/01/01 09:08:14;;;;;;;2.70;1.57;;;;;;;;;;4928221;28;20534;-72
2023/01/01 09:11:03;;;;;;;3.83;1.30;;;;;;;;;;4932653;28;20479;-72
2023/01/01 09:13:52;;;;;;;5.30;1.57;;;;;;;;;;4934587;28;20476;-72
2023/01/01 09:16:41;;;;;;;2.50;1.40;;;;;;;;;;4925870;28;20537;-72
2023/01/01 09:19:31;;;;;;;2.23;1.70;;;;;;;;;;4932941;28;22602;-73
2023/01/01 09:22:21;;;;;;;3.43;1.50;;;;;;;;;;4926792;28;21033;-73
2023/01/01 09:25:10;;;;;;;2.13;1.40;;;;;;;;;;4942354;28;20545;-75
2023/01/01 09:27:59;;;;;;;2.00;1.23;;;;;;;;;;4942455;28;20477;-73
2023/01/01 09:30:48;;;;;;;2.40;1.40;;;;;;;;;;4939375;28;20487;-72
2023/01/01 09:33:36;;;;;;;3.13;1.40;;;;;;;;;;4941992;28;20570;-75
2023/01/01 09:36:29;;;;;;;2.60;1.50;;;;;;;;;;4938997;28;20463;-75
2023/01/01 09:39:19;;;;;;;2.30;1.60;;;;;;;;;;4938518;28;20479;-76
2023/01/01 09:42:16;;;;;;;3.07;1.67;;;;;;;;;;4936027;28;20495;-76
2023/01/01 09:45:25;;;;;;;5.70;1.80;;;;;;;;;;4916907;28;20483;-74
2023/01/01 09:48:16;;;;;;;2.73;1.33;;;;;;;;;;4913419;28;20570;-75
2023/01/01 09:51:06;;;;;;;3.23;1.57;;;;;;;;;;4918711;28;20488;-74
2023/01/01 09:53:56;;;;;;;4.73;1.50;;;;;;;;;;4934566;28;20599;-74
2023/01/01 09:56:47;;;;;;;3.30;1.40;;;;;;;;;;4940586;28;22230;-75
2023/01/01 09:59:35;;;;;;;3.00;1.43;;;;;;;;;;4956355;28;20467;-76
2023/01/01 10:02:33;;;;;;;3.17;1.50;;;;;;;;;;4946501;28;20494;-76
2023/01/01 10:05:27;;;;;;;3.23;1.57;;;;;;;;;;4944566;28;21404;-75
2023/01/01 10:08:20;;;;;;;4.17;1.70;;;;;;;;;;4947591;28;20486;-75
2023/01/01 10:11:14;;;;;;;3.70;1.40;;;;;;;;;;4947757;28;20488;-75
2023/01/01 10:14:06;;;;;;;1.77;1.13;;;;;;;;;;4947497;28;21020;-75
2023/01/01 10:16:56;;;;;;;3.80;1.77;;;;;;;;;;4946722;28;20470;-75
2023/01/01 10:19:46;;;;;;;5.60;1.37;;;;;;;;;;4948682;28;20486;-75
2023/01/01 10:22:36;;;;;;;3.53;1.67;;;;;;;;;;4949923;28;20483;-75
2023/01/01 10:25:29;;;;;;;3.83;1.93;;;;;;;;;;4941322;28;20456;-74
2023/01/01 10:28:21;;;;;;;2.30;1.50;;;;;;;;;;4947446;28;20470;-75
2023/01/01 10:31:18;;;;;;;3.00;1.67;;;;;;;;;;4950373;28;20498;-74
2023/01/01 10:34:23;;;;;;;4.10;1.77;;;;;;;;;;4952156;28;20491;-74
2023/01/01 10:37:12;;;;;;;2.03;1.80;;;;;;;;;;4946979;28;20487;-75
2023/01/01 10:40:02;;;;;;;3.37;2.03;;;;;;;;;;4948304;28;20475;-74
2023/01/01 10:42:53;;;;;;;3.47;1.90;;;;;;;;;;4948369;28;20972;-76
2023/01/01 10:45:44;;;;;;;3.77;1.60;;;;;;;;;;4943725;28;20995;-74
2023/01/01 10:48:35;;;;;;;4.67;1.77;;;;;;;;;;4943439;28;20502;-74
2023/01/01 10:51:25;;;;;;;4.13;1.40;;;;;;;;;;4946964;28;20472;-74
2023/01/01 10:54:25;;;;;;;5.13;1.63;;;;;;;;;;4940938;28;21272;-74
2023/01/01 10:57:21;;;;;;;3.13;1.43;;;;;;;;;;4945480;28;20455;-74
2023/01/01 11:00:25;;;;;;;1.60;1.20;;;;;;;;;;4946872;28;20618;-74
2023/01/01 11:03:22;;;;;;;4.70;1.47;;;;;;;;;;4953265;28;20440;-74
2023/01/01 11:06:17;;;;;;;2.17;1.40;;;;;;;;;;4945543;28;20470;-75
2023/01/01 11:09:06;;;;;;;3.80;1.53;;;;;;;;;;4945095;28;20479;-75
2023/01/01 11:11:57;;;;;;;4.73;1.60;;;;;;;;;;4946194;28;20484;-74
2023/01/01 11:14:58;;;;;;;2.07;1.50;;;;;;;;;;4938974;28;20514;-74
2023/01/01 11:17:51;;;;;;;5.07;1.70;;;;;;;;;;4940980;28;20942;-74
2023/01/01 11:20:43;;;;;;;2.40;1.70;;;;;;;;;;4946626;28;20522;-76
2023/01/01 11:23:34;;;;;;;3.90;1.73;;;;;;;;;;4951082;28;20539;-76
2023/01/01 11:26:26;;;;;;;1.73;1.00;;;;;;;;;;4930692;28;21223;-76
2023/01/01 11:29:21;;;;;;;3.10;1.53;;;;;;;;;;4936751;28;20692;-75
2023/01/01 11:32:10;;;;;;;3.37;1.90;;;;;;;;;;4931530;28;21806;-75
2023/01/01 11:35:00;;;;;;;2.37;0.90;;;;;;;;;;4930508;28;20576;-75
2023/01/01 11:37:52;;;;;;;4.60;1.33;;;;;;;;;;4935268;28;20518;-75
2023/01/01 11:40:47;;;;;;;2.70;1.30;;;;;;;;;;4933665;28;20479;-75
2023/01/01 11:43:40;;;;;;;2.63;1.30;;;;;;;;;;4941216;28;20447;-75
2023/01/01 11:46:31;;;;;;;2.43;1.10;;;;;;;;;;4941575;28;20448;-75
2023/01/01 11:49:23;;;;;;;3.77;1.17;;;;;;;;;;4945213;28;21042;-75
2023/01/01 11:52:26;;;;;;;2.93;1.07;;;;;;;;;;4936736;28;20486;-76
2023/01/01 11:55:23;;;;;;;3.17;1.20;;;;;;;;;;4939236;28;21521;-75
2023/01/01 11:58:17;;;;;;;2.03;0.80;;;;;;;;;;4937939;28;21356;-75
2023/01/01 12:01:10;;;;;;;2.80;1.90;;;;;;;;;;4940937;28;20554;-75
2023/01/01 12:04:01;;;;;;;2.30;0.90;;;;;;;;;;4922032;28;20483;-75
2023/01/01 12:06:53;;;;;;;2.20;1.13;;;;;;;;;;4938201;28;20471;-75
2023/01/01 12:09:47;;;;;;;1.90;0.97;;;;;;;;;;4940608;28;20486;-75
2023/01/01 12:12:38;;;;;;;3.73;1.30;;;;;;;;;;4938385;28;20483;-75
2023/01/01 12:15:32;;;;;;;2.13;0.90;;;;;;;;;;4932686;28;20499;-75
2023/01/01 12:18:25;;;;;;;4.77;0.93;;;;;;;;;;4937667;28;23272;-75
2023/01/01 12:21:18;;;;;;;4.57;1.80;;;;;;;;;;4941262;28;20476;-75
2023/01/01 12:24:11;;;;;;;4.00;1.20;;;;;;;;;;4936868;28;20490;-75
2023/01/01 12:27:09;;;;;;;3.43;0.80;;;;;;;;;;4938183;28;20460;-73
2023/01/01 12:30:04;;;;;;;3.43;1.30;;;;;;;;;;4929799;28;20498;-77
2023/01/01 12:33:10;;;;;;;2.57;1.00;;;;;;;;;;4937421;28;20491;-74
2023/01/01 12:36:10;;;;;;;2.47;1.23;;;;;;;;;;4919613;28;22737;-74
2023/01/01 12:39:14;;;;;;;4.77;0.90;;;;;;;;;;4940862;28;21011;-75
2023/01/01 12:42:14;;;;;;;2.30;1.00;;;;;;;;;;4913217;28;21019;-74
2023/01/01 12:45:17;;;;;;;3.77;1.50;;;;;;;;;;4938677;28;20468;-74
2023/01/01 12:48:13;;;;;;;3.30;1.20;;;;;;;;;;4933464;28;20459;-74
2023/01/01 12:51:07;;;;;;;2.30;1.13;;;;;;;;;;4931775;28;20479;-73
2023/01/01 12:54:02;;;;;;;1.50;1.00;;;;;;;;;;4931334;28;21079;-72
2023/01/01 12:56:54;;;;;;;2.63;1.37;;;;;;;;;;4927983;28;20851;-75
2023/01/01 12:59:46;;;;;;;2.30;0.80;;;;;;;;;;4925269;28;20472;-75
2023/01/01 13:02:42;;;;;;;1.53;0.80;;;;;;;;;;4931126;28;20491;-74
2023/01/01 13:05:35;;;;;;;2.13;0.90;;;;;;;;;;4924262;28;20455;-75
2023/01/01 13:08:24;;;;;;;1.73;1.00;;;;;;;;;;4931747;28;21322;-74
2023/01/01 13:11:15;;;;;;;1.17;0.80;;;;;;;;;;4923401;28;20484;-75
2023/01/01 13:14:04;;;;;;;4.63;1.10;;;;;;;;;;4934248;28;20476;-75
2023/01/01 13:16:54;;;;;;;3.77;1.13;;;;;;;;;;4934656;28;20459;-74
2023/01/01 13:19:42;;;;;;;1.40;0.80;;;;;;;;;;4927265;28;20884;-76
2023/01/01 13:22:40;;;;;;;2.97;1.07;;;;;;;;;;4938237;28;20541;-74
2023/01/01 13:25:29;;;;;;;6.77;1.53;;;;;;;;;;4939592;28;20466;-75
2023/01/01 13:28:19;;;;;;;3.70;1.03;;;;;;;;;;4944480;28;20479;-75
2023/01/01 13:31:08;;;;;;;3.53;1.20;;;;;;;;;;4928968;28;20490;-75
2023/01/01 13:34:11;;;;;;;4.30;1.33;;;;;;;;;;4937108;28;21170;-76
2023/01/01 13:37:25;;;;;;;2.70;1.37;;;;;;;;;;4932502;28;20838;-76
2023/01/01 13:40:29;;;;;;;3.90;1.23;;;;;;;;;;4925098;28;20508;-76
2023/01/01 13:43:30;;;;;;;4.47;1.37;;;;;;;;;;4926055;28;20903;-74
2023/01/01 13:46:29;;;;;;;4.73;2.17;;;;;;;;;;4942429;28;21754;-74
2023/01/01 13:49:26;;;;;;;2.27;1.07;;;;;;;;;;4928173;28;20530;-75
2023/01/01 13:52:33;;;;;;;3.60;1.30;;;;;;;;;;4935861;28;20479;-75
2023/01/01 13:55:35;;;;;;;5.13;1.57;;;;;;;;;;4935602;28;20483;-75
2023/01/01 13:58:57;;;;;;;5.27;2.17;;;;;;;;;;4935959;28;20471;-74
2023/01/01 14:01:52;;;;;;;3.17;1.27;;;;;;;;;;4873637;29;20486;-74
2023/01/01 14:04:44;;;;;;;2.90;1.23;;;;;;;;;;4882065;29;20461;-74
2023/01/01 14:07:36;;;;;;;2.53;1.33;;;;;;;;;;4944922;28;20467;-75
2023/01/01 14:10:39;;;;;;;3.67;1.20;;;;;;;;;;4948448;28;20466;-73
2023/01/01 14:13:31;;;;;;;7.13;2.40;;;;;;;;;;4929662;28;20464;-72
2023/01/01 14:16:19;;;;;;;4.20;1.30;;;;;;;;;;4925927;28;20484;-75
2023/01/01 14:19:11;;;;;;;4.50;1.30;;;;;;;;;;4931307;28;20480;-75
2023/01/01 14:22:07;;;;;;;4.77;1.53;;;;;;;;;;4933988;28;20486;-75
2023/01/01 14:24:57;;;;;;;3.53;1.20;;;;;;;;;;4930476;28;20467;-74
2023/01/01 14:27:53;;;;;;;6.43;1.60;;;;;;;;;;4931976;28;20471;-75
2023/01/01 14:30:45;;;;;;;3.63;1.10;;;;;;;;;;4921901;28;20486;-74
2023/01/01 14:33:34;;;;;;;3.87;1.27;;;;;;;;;;4937097;28;20475;-74
2023/01/01 14:36:25;;;;;;;4.83;1.60;;;;;;;;;;4930669;28;20530;-77
2023/01/01 14:39:22;;;;;;;4.93;1.17;;;;;;;;;;4912818;28;20480;-77
2023/01/01 14:42:17;;;;;;;5.17;1.43;;;;;;;;;;4939039;28;21468;-76
2023/01/01 14:45:06;;;;;;;5.00;1.50;;;;;;;;;;4933013;28;20572;-74
2023/01/01 14:47:55;;;;;;;3.77;1.90;;;;;;;;;;4938289;28;20515;-75
2023/01/01 14:50:47;;;;;;;4.87;1.83;;;;;;;;;;4935993;28;20483;-75
2023/01/01 14:53:37;;;;;;;6.83;1.77;;;;;;;;;;4936364;28;20452;-74
2023/01/01 14:56:27;;;;;;;3.90;1.30;;;;;;;;;;4935013;28;21285;-75
2023/01/01 14:59:18;;;;;;;3.93;1.47;;;;;;;;;;4931970;28;21748;-74
2023/01/01 15:02:14;;;;;;;7.10;2.00;;;;;;;;;;4934935;28;20479;-74
2023/01/01 15:05:17;;;;;;;3.00;1.47;;;;;;;;;;4934860;28;20490;-73
2023/01/01 15:08:09;;;;;;;3.40;1.33;;;;;;;;;;4940796;28;20974;-74
2023/01/01 15:11:03;;;;;;;4.47;1.60;;;;;;;;;;4930700;28;20483;-73
2023/01/01 15:13:56;;;;;;;4.07;1.77;;;;;;;;;;4942884;28;20467;-74
2023/01/01 15:16:59;;;;;;;3.80;1.70;;;;;;;;;;4938462;28;20992;-71
2023/01/01 15:20:00;;;;;;;3.23;1.50;;;;;;;;;;4942537;28;20488;-71
2023/01/01 15:22:49;;;;;;;3.57;1.50;;;;;;;;;;4943667;28;20494;-71
2023/01/01 15:25:42;;;;;;;5.20;2.03;;;;;;;;;;4941146;28;20459;-70
2023/01/01 15:28:34;;;;;;;6.50;1.93;;;;;;;;;;4943396;28;20479;-71
2023/01/01 15:31:23;;;;;;;3.80;1.43;;;;;;;;;;4946163;28;20483;-71
2023/01/01 15:34:23;;;;;;;3.83;1.47;;;;;;;;;;4939257;28;20459;-73
2023/01/01 15:37:15;;;;;;;4.13;1.57;;;;;;;;;;4942172;28;20542;-76
2023/01/01 15:40:24;;;;;;;7.17;1.93;;;;;;;;;;4938576;28;20482;-76
2023/01/01 15:43:19;;;;;;;3.83;1.47;;;;;;;;;;4943632;28;20463;-75
2023/01/01 15:46:12;;;;;;;5.37;2.00;;;;;;;;;;4945137;28;22368;-75
2023/01/01 15:49:00;;;;;;;4.17;1.70;;;;;;;;;;4947134;28;20697;-75
2023/01/01 15:51:49;;;;;;;4.57;2.03;;;;;;;;;;4937361;28;21395;-76
2023/01/01 15:54:39;;;;;;;4.57;1.97;;;;;;;;;;4942017;28;21796;-77
2023/01/01 15:57:28;;;;;;;9.77;2.40;;;;;;;;;;4937428;28;20488;-76
2023/01/01 16:00:24;;;;;;;7.60;2.10;;;;;;;;;;4938487;28;20475;-76
2023/01/01 16:03:22;;;;;;;7.30;2.23;;;;;;;;;;4941568;28;20468;-76
2023/01/01 16:06:15;;;;;;;5.50;3.93;;;;;;;;;;4940512;28;20449;-75
2023/01/01 16:09:04;;;;;;;5.87;2.00;;;;;;;;;;4944810;28;20487;-75
2023/01/01 16:11:53;;;;;;;7.50;2.93;;;;;;;;;;4938969;28;20487;-75
2023/01/01 16:14:42;;;;;;;7.90;3.50;;;;;;;;;;4936559;28;21015;-75
2023/01/01 16:17:31;;;;;;;19.77;14.10;;;;;;;;;;4941591;28;20568;-75
2023/01/01 16:20:21;;;;;;;20.23;12.77;;;;;;;;;;4941570;28;20490;-77
2023/01/01 16:23:12;;;;;;;17.07;9.77;;;;;;;;;;4936115;28;20835;-74
2023/01/01 16:26:02;;;;;;;16.77;12.03;;;;;;;;;;4929346;28;20460;-73
2023/01/01 16:28:51;;;;;;;7.67;3.90;;;;;;;;;;4931578;28;20500;-75
2023/01/01 16:31:40;;;;;;;5.17;2.70;;;;;;;;;;4937768;28;20549;-75
2023/01/01 16:34:33;;;;;;;7.20;3.00;;;;;;;;;;4934057;28;20464;-77
2023/01/01 16:37:22;;;;;;;5.40;3.20;;;;;;;;;;4940667;28;20578;-75
2023/01/01 16:40:11;;;;;;;6.10;3.37;;;;;;;;;;4943188;28;20475;-75
2023/01/01 16:43:00;;;;;;;7.07;4.77;;;;;;;;;;4944299;28;20462;-75
2023/01/01 16:45:48;;;;;;;6.67;3.70;;;;;;;;;;4941977;28;20455;-76
2023/01/01 16:48:37;;;;;;;5.67;3.57;;;;;;;;;;4941393;28;21256;-75
2023/01/01 16:51:28;;;;;;;5.50;3.70;;;;;;;;;;4943620;28;20488;-78
2023/01/01 16:54:17;;;;;;;7.20;3.73;;;;;;;;;;4913775;28;20451;-75
2023/01/01 16:57:05;;;;;;;7.30;3.10;;;;;;;;;;4938750;28;20484;-75
2023/01/01 16:59:54;;;;;;;5.53;3.37;;;;;;;;;;4941379;28;20492;-74
2023/01/01 17:02:43;;;;;;;4.10;2.90;;;;;;;;;;4945286;28;20487;-74
2023/01/01 17:05:32;;;;;;;5.67;3.20;;;;;;;;;;4942306;28;20456;-75
2023/01/01 17:08:29;;;;;;;5.37;3.33;;;;;;;;;;4934069;28;20549;-76
2023/01/01 17:11:19;;;;;;;7.13;3.10;;;;;;;;;;4933683;28;20494;-76
2023/01/01 17:14:10;;;;;;;4.90;2.73;;;;;;;;;;4926240;28;20456;-77
2023/01/01 17:16:58;;;;;;;3.67;3.00;;;;;;;;;;4942201;28;21010;-76